Time;durP1;ratioP1;P1;durP2;ratioP2;P2;SDS_P1;SDS_P2;PMS_P1;PMS_P2;Temp;Humidity;BMP_temperature;BMP_pressure;BME280_temperature;BME280_humidity;BME280_pressure;Samples;Min_cycle;Max_cycle;Signal;HPM_P1;HPM_P2
2024/04/22 00:01:24;;;;;;;22.90;20.17;;;0.00;99.90;;;;;;5374328;26;20000;-83
2024/04/22 00:03:51;;;;;;;22.30;20.35;;;0.00;99.90;;;;;;5400640;26;20007;-83
2024/04/22 00:06:22;;;;;;;22.75;20.75;;;0.00;99.90;;;;;;5337014;26;20008;-87
2024/04/22 00:08:49;;;;;;;23.75;21.75;;;0.00;99.90;;;;;;5357893;26;20008;-86
2024/04/22 00:11:17;;;;;;;23.02;20.80;;;0.20;99.90;;;;;;5397170;26;20019;-84
2024/04/22 00:13:44;;;;;;;22.77;20.75;;;0.10;99.90;;;;;;5359058;26;20004;-86
2024/04/22 00:16:11;;;;;;;22.85;20.75;;;0.20;99.90;;;;;;5376547;26;20003;-85
2024/04/22 00:18:40;;;;;;;22.05;20.05;;;0.40;99.90;;;;;;5351673;26;20710;-86
2024/04/22 00:21:07;;;;;;;22.15;19.77;;;0.40;99.90;;;;;;5372693;26;20668;-85
2024/04/22 00:23:34;;;;;;;22.80;20.40;;;0.40;99.90;;;;;;5363947;26;20018;-87
2024/04/22 00:26:02;;;;;;;21.83;19.75;;;0.30;99.90;;;;;;5364515;26;20000;-86
2024/04/22 00:28:29;;;;;;;21.73;19.83;;;0.20;99.90;;;;;;5347471;26;20041;-86
2024/04/22 00:30:57;;;;;;;22.23;19.95;;;0.20;99.90;;;;;;5330272;26;20015;-86
2024/04/22 00:33:24;;;;;;;22.63;20.52;;;0.20;99.90;;;;;;5346866;26;20041;-87
2024/04/22 00:35:56;;;;;;;22.55;20.40;;;0.20;99.90;;;;;;5347488;26;20004;-87
2024/04/22 00:38:25;;;;;;;22.92;20.75;;;0.20;99.90;;;;;;5367805;26;20023;-86
2024/04/22 00:40:53;;;;;;;23.63;21.25;;;0.20;99.90;;;;;;5340732;26;20085;-84
2024/04/22 00:43:22;;;;;;;23.13;20.92;;;0.20;99.90;;;;;;5360186;26;20008;-86
2024/04/22 00:45:50;;;;;;;22.77;20.35;;;0.30;99.90;;;;;;5347029;26;20062;-91
2024/04/22 00:48:22;;;;;;;24.20;21.17;;;0.30;99.90;;;;;;5355225;26;20004;-86
2024/04/22 00:50:52;;;;;;;23.23;21.00;;;0.30;99.90;;;;;;5353682;26;20064;-85
2024/04/22 00:53:20;;;;;;;24.30;21.85;;;0.30;99.90;;;;;;5382751;26;20048;-88
2024/04/22 00:55:48;;;;;;;23.42;21.30;;;0.30;99.90;;;;;;5341260;26;20028;-87
2024/04/22 00:58:17;;;;;;;23.83;21.52;;;0.40;99.90;;;;;;5371516;26;20014;-86
2024/04/22 01:00:50;;;;;;;24.20;21.83;;;0.40;99.90;;;;;;5335817;26;19996;-86
2024/04/22 01:03:18;;;;;;;21.85;19.75;;;0.50;99.90;;;;;;5371972;26;20001;-89
2024/04/22 01:05:45;;;;;;;23.73;21.42;;;0.50;99.90;;;;;;5367677;26;20062;-90
2024/04/22 01:08:12;;;;;;;23.65;21.35;;;0.50;99.90;;;;;;5397753;26;19999;-86
2024/04/22 01:10:39;;;;;;;23.25;21.13;;;0.60;99.90;;;;;;5382315;26;20016;-93
2024/04/22 01:13:07;;;;;;;24.35;20.88;;;0.60;99.90;;;;;;5338676;26;20005;-83
2024/04/22 01:15:34;;;;;;;22.63;20.63;;;0.60;99.90;;;;;;5367311;26;20015;-85
2024/04/22 01:18:03;;;;;;;23.30;21.05;;;0.60;99.90;;;;;;5365865;26;20083;-85
2024/04/22 01:20:30;;;;;;;23.75;21.63;;;0.70;99.90;;;;;;5365180;26;19995;-86
2024/04/22 01:22:57;;;;;;;24.10;21.88;;;0.80;99.90;;;;;;5396248;26;19999;-88
2024/04/22 01:25:30;;;;;;;24.65;22.15;;;0.80;99.90;;;;;;5361178;26;20094;-85
2024/04/22 01:27:57;;;;;;;25.23;22.92;;;0.70;99.90;;;;;;5337943;26;20051;-85
2024/04/22 01:30:24;;;;;;;24.73;22.42;;;0.80;99.90;;;;;;5348162;26;20007;-86
2024/04/22 01:32:51;;;;;;;25.17;23.00;;;0.70;99.90;;;;;;5322366;26;20008;-84
2024/04/22 01:35:19;;;;;;;24.92;22.60;;;0.70;99.90;;;;;;5353594;26;20062;-87
2024/04/22 01:37:46;;;;;;;25.25;22.95;;;0.80;99.90;;;;;;5338528;26;20007;-85
2024/04/22 01:40:13;;;;;;;25.20;23.10;;;0.70;99.90;;;;;;5342467;26;20472;-86
2024/04/22 01:42:41;;;;;;;26.83;24.15;;;0.70;99.90;;;;;;5370950;26;20016;-90
2024/04/22 01:45:08;;;;;;;26.58;23.98;;;0.80;99.90;;;;;;5411067;26;20545;-86
2024/04/22 01:47:36;;;;;;;26.50;23.80;;;0.80;99.90;;;;;;5401268;26;20008;-86
2024/04/22 01:50:03;;;;;;;25.75;23.35;;;0.90;99.90;;;;;;5395846;26;20065;-83
2024/04/22 01:52:33;;;;;;;26.25;23.65;;;0.80;99.90;;;;;;5368409;26;20000;-86
2024/04/22 01:55:02;;;;;;;26.80;24.15;;;0.90;99.90;;;;;;5336948;26;20000;-84
2024/04/22 01:57:29;;;;;;;25.15;22.65;;;0.90;99.90;;;;;;5361603;26;20658;-88
2024/04/22 01:59:59;;;;;;;24.92;22.52;;;0.90;99.90;;;;;;5358968;26;20035;-85
2024/04/22 02:02:37;;;;;;;26.83;24.10;;;0.90;99.90;;;;;;5303827;26;20004;-84
2024/04/22 02:05:05;;;;;;;25.42;22.88;;;0.70;99.90;;;;;;5417993;26;20631;-85
2024/04/22 02:07:32;;;;;;;25.55;22.85;;;0.70;99.90;;;;;;5364555;26;20019;-85
2024/04/22 02:09:59;;;;;;;25.42;22.73;;;0.70;99.90;;;;;;5361782;26;20561;-84
2024/04/22 02:12:43;;;;;;;26.35;23.63;;;0.50;99.90;;;;;;5367753;26;20008;-85
2024/04/22 02:15:10;;;;;;;28.33;24.88;;;0.30;99.90;;;;;;5363362;26;20377;-85
2024/04/22 02:17:37;;;;;;;28.27;24.88;;;0.30;99.90;;;;;;5365026;26;20018;-85
2024/04/22 02:20:05;;;;;;;27.80;23.30;;;0.20;99.90;;;;;;5396050;26;20478;-83
2024/04/22 02:22:35;;;;;;;26.92;24.38;;;0.20;99.90;;;;;;5396958;26;20007;-85
2024/04/22 02:25:03;;;;;;;27.00;24.30;;;0.20;99.90;;;;;;5365291;26;20751;-84
2024/04/22 02:27:31;;;;;;;25.88;23.40;;;0.20;99.90;;;;;;5359049;26;20034;-83
2024/04/22 02:29:58;;;;;;;28.83;24.50;;;0.20;99.90;;;;;;5355788;26;20016;-85
2024/04/22 02:32:28;;;;;;;27.27;24.52;;;0.10;99.90;;;;;;5356739;26;20015;-83
2024/04/22 02:34:57;;;;;;;25.90;23.40;;;0.20;99.90;;;;;;5361908;26;20004;-84
2024/04/22 02:37:27;;;;;;;26.92;23.65;;;0.20;99.90;;;;;;5397668;26;20007;-84
2024/04/22 02:39:55;;;;;;;28.38;25.17;;;0.30;99.90;;;;;;5396537;26;20027;-85
2024/04/22 02:42:23;;;;;;;26.73;23.88;;;0.20;99.90;;;;;;5339245;26;20069;-85
2024/04/22 02:44:50;;;;;;;27.58;24.88;;;0.20;99.90;;;;;;5331673;26;20004;-85
2024/04/22 02:47:17;;;;;;;29.35;24.80;;;0.20;99.90;;;;;;5363808;26;20081;-83
2024/04/22 02:49:44;;;;;;;29.52;25.23;;;0.30;99.90;;;;;;5360630;26;19997;-84
2024/04/22 02:52:11;;;;;;;26.70;23.17;;;0.30;99.90;;;;;;5374590;26;20212;-83
2024/04/22 02:54:38;;;;;;;32.42;24.35;;;0.30;99.90;;;;;;5347424;26;20011;-84
2024/04/22 03:00:04;;;;;;;25.63;23.08;;;0.10;99.90;;;;;;5407036;26;20208;-85
2024/04/22 03:02:32;;;;;;;27.08;24.00;;;0.10;99.90;;;;;;5419953;26;20008;-86
2024/04/22 03:05:00;;;;;;;27.35;24.35;;;0.20;99.90;;;;;;5382466;26;20010;-83
2024/04/22 03:07:31;;;;;;;26.70;23.95;;;0.30;99.90;;;;;;5373892;26;20028;-84
2024/04/22 03:09:58;;;;;;;26.10;23.48;;;0.30;99.90;;;;;;5371854;26;20014;-84
2024/04/22 03:12:33;;;;;;;25.92;23.15;;;0.40;99.90;;;;;;5363656;26;20085;-83
2024/04/22 03:15:00;;;;;;;25.85;22.95;;;0.30;99.90;;;;;;5365655;26;20039;-83
2024/04/22 03:17:27;;;;;;;26.52;22.60;;;0.20;99.90;;;;;;5365708;26;20365;-84
2024/04/22 03:19:57;;;;;;;25.92;22.98;;;0.20;99.90;;;;;;5361552;26;20001;-84
2024/04/22 03:22:27;;;;;;;23.92;21.48;;;0.10;99.90;;;;;;5360688;26;20004;-85
2024/04/22 03:24:58;;;;;;;25.70;23.00;;;0.20;99.90;;;;;;5363523;26;20100;-85
2024/04/22 03:27:27;;;;;;;29.75;24.75;;;0.30;99.90;;;;;;5365988;26;20004;-86
2024/04/22 03:29:55;;;;;;;30.00;23.58;;;0.20;99.90;;;;;;5388335;26;20003;-84
2024/04/22 03:32:23;;;;;;;26.92;24.02;;;0.20;99.90;;;;;;5365535;26;20022;-84
2024/04/22 03:34:50;;;;;;;26.63;23.80;;;0.30;99.90;;;;;;5353730;26;20000;-86
2024/04/22 03:37:18;;;;;;;27.70;24.80;;;0.40;99.90;;;;;;5359719;26;20004;-83
2024/04/22 03:39:46;;;;;;;25.90;23.38;;;0.40;99.90;;;;;;5373851;26;20362;-85
2024/04/22 03:42:13;;;;;;;26.98;23.90;;;0.40;99.90;;;;;;5391172;26;20063;-83
2024/04/22 03:44:40;;;;;;;24.25;22.00;;;0.40;99.90;;;;;;5401080;26;20016;-85
2024/04/22 03:49:56;;;;;;;26.13;23.50;;;0.50;99.90;;;;;;5407576;26;20010;-86
2024/04/22 03:52:23;;;;;;;26.05;23.40;;;0.50;99.90;;;;;;5405964;26;20004;-84
2024/04/22 03:54:52;;;;;;;27.77;24.70;;;0.50;99.90;;;;;;5363031;26;20004;-83
2024/04/22 03:57:19;;;;;;;27.85;24.27;;;0.50;99.90;;;;;;5401887;26;20065;-83
2024/04/22 03:59:50;;;;;;;29.00;23.95;;;0.50;99.90;;;;;;5336065;26;20011;-84
2024/04/22 04:02:18;;;;;;;27.27;24.00;;;0.40;99.90;;;;;;5423317;26;20471;-84
2024/04/22 04:04:45;;;;;;;26.30;23.50;;;0.40;99.90;;;;;;5363981;26;20833;-84
2024/04/22 04:07:12;;;;;;;29.33;26.40;;;0.40;99.90;;;;;;5366796;26;20026;-83
2024/04/22 04:09:40;;;;;;;28.23;25.42;;;0.40;99.90;;;;;;5365106;26;20000;-82
2024/04/22 04:12:08;;;;;;;27.40;24.45;;;0.40;99.90;;;;;;5382022;26;19999;-83
2024/04/22 04:14:35;;;;;;;27.33;24.45;;;0.40;99.90;;;;;;5399645;26;20224;-84
2024/04/22 04:17:02;;;;;;;28.58;24.65;;;0.30;99.90;;;;;;5360567;26;20022;-84
2024/04/22 04:19:31;;;;;;;27.98;24.80;;;0.30;99.90;;;;;;5393338;26;20014;-82
2024/04/22 04:21:58;;;;;;;28.65;24.10;;;0.30;99.90;;;;;;5396308;26;19995;-83
2024/04/22 04:24:25;;;;;;;27.25;23.02;;;0.40;99.90;;;;;;5415557;26;20018;-83
2024/04/22 04:26:54;;;;;;;26.80;24.13;;;0.40;99.90;;;;;;5404884;26;20009;-83
2024/04/22 04:29:22;;;;;;;27.23;23.08;;;0.40;99.90;;;;;;5394845;26;20010;-83
2024/04/22 04:31:49;;;;;;;33.58;27.27;;;0.30;99.90;;;;;;5397330;26;20015;-82
2024/04/22 04:34:18;;;;;;;40.97;33.22;;;0.30;99.90;;;;;;5367072;26;20003;-83
2024/04/22 04:36:45;;;;;;;43.53;36.83;;;0.30;99.90;;;;;;5373186;26;20588;-83
2024/04/22 04:39:12;;;;;;;37.75;32.53;;;0.30;99.90;;;;;;5400449;26;20462;-83
2024/04/22 04:41:40;;;;;;;46.83;39.05;;;0.30;99.90;;;;;;5399067;26;20018;-84
2024/04/22 04:44:09;;;;;;;33.60;30.00;;;0.50;99.90;;;;;;5366716;26;20015;-84
2024/04/22 04:46:36;;;;;;;53.90;41.25;;;0.40;99.90;;;;;;5369260;26;19999;-83
2024/04/22 04:49:03;;;;;;;51.25;42.88;;;0.50;99.90;;;;;;5366833;26;20354;-83
2024/04/22 04:51:30;;;;;;;51.55;41.58;;;0.40;99.90;;;;;;5375821;26;19999;-83
2024/04/22 04:54:02;;;;;;;44.92;37.60;;;0.60;99.90;;;;;;5397525;26;20015;-86
2024/04/22 04:56:29;;;;;;;57.83;40.72;;;0.50;99.90;;;;;;5396057;26;20290;-83
2024/04/22 04:58:56;;;;;;;53.15;40.13;;;0.60;99.90;;;;;;5365916;26;20467;-83
2024/04/22 05:01:25;;;;;;;47.80;38.08;;;0.70;99.90;;;;;;5391933;26;20003;-85
2024/04/22 05:03:53;;;;;;;49.58;38.45;;;0.70;99.90;;;;;;5368445;26;20073;-84
2024/04/22 05:06:21;;;;;;;46.08;35.78;;;0.80;99.90;;;;;;5355785;26;20009;-84
2024/04/22 05:08:49;;;;;;;41.83;35.60;;;0.90;99.90;;;;;;5356856;26;20018;-83
2024/04/22 05:11:18;;;;;;;44.40;35.38;;;1.00;99.90;;;;;;5396008;26;19999;-83
2024/04/22 05:13:46;;;;;;;45.38;35.80;;;1.10;99.90;;;;;;5409109;26;20015;-84
2024/04/22 05:16:13;;;;;;;47.47;35.20;;;1.30;99.90;;;;;;5389714;26;20000;-83
2024/04/22 05:18:41;;;;;;;44.03;35.25;;;1.40;99.90;;;;;;5397764;26;20479;-83
2024/04/22 05:21:10;;;;;;;41.90;34.97;;;1.50;99.90;;;;;;5383993;26;20007;-83
2024/04/22 05:23:37;;;;;;;42.60;32.85;;;1.50;99.90;;;;;;5399061;26;20013;-81
2024/04/22 05:26:05;;;;;;;38.58;32.58;;;1.50;99.90;;;;;;5378075;26;20703;-80
2024/04/22 05:28:36;;;;;;;41.35;32.70;;;1.60;99.90;;;;;;5387996;26;20015;-82
2024/04/22 05:31:03;;;;;;;45.60;32.15;;;1.70;99.90;;;;;;5384464;26;19996;-81
2024/04/22 05:36:17;;;;;;;35.10;31.42;;;1.80;99.90;;;;;;5390106;26;20014;-82
2024/04/22 05:38:44;;;;;;;38.10;31.67;;;1.80;99.90;;;;;;5398385;26;20116;-82
2024/04/22 05:41:12;;;;;;;38.47;31.90;;;1.80;99.90;;;;;;5377491;26;20107;-82
2024/04/22 05:43:39;;;;;;;37.72;32.72;;;1.90;99.90;;;;;;5396569;26;19999;-81
2024/04/22 05:46:08;;;;;;;37.08;31.85;;;2.00;99.90;;;;;;5371721;26;20016;-82
2024/04/22 05:48:36;;;;;;;35.53;31.73;;;2.10;99.90;;;;;;5372204;26;19999;-81
2024/04/22 05:51:05;;;;;;;43.17;34.67;;;2.20;99.90;;;;;;5384007;26;19995;-83
2024/04/22 05:53:33;;;;;;;37.30;33.45;;;2.10;99.90;;;;;;5352276;26;20015;-80
2024/04/22 05:56:00;;;;;;;33.70;30.10;;;2.10;99.90;;;;;;5362269;26;20097;-82
2024/04/22 05:58:29;;;;;;;36.78;32.88;;;2.10;99.90;;;;;;5356304;26;20009;-80
2024/04/22 06:00:57;;;;;;;35.10;31.40;;;2.10;99.90;;;;;;5332204;26;20022;-82
2024/04/22 06:03:24;;;;;;;36.58;32.78;;;2.10;99.90;;;;;;5360240;26;20004;-82
2024/04/22 06:05:51;;;;;;;35.95;32.20;;;2.10;99.90;;;;;;5364841;26;20011;-80
2024/04/22 06:08:18;;;;;;;35.67;31.85;;;1.90;99.90;;;;;;5334298;26;20012;-80
2024/04/22 06:10:45;;;;;;;34.78;31.35;;;1.80;99.90;;;;;;5374283;26;20007;-79
2024/04/22 06:13:13;;;;;;;34.35;30.45;;;1.80;99.90;;;;;;5395352;26;19996;-80
2024/04/22 06:15:41;;;;;;;34.40;30.75;;;1.90;99.90;;;;;;5363400;26;20073;-82
2024/04/22 06:18:08;;;;;;;34.47;31.10;;;1.80;99.90;;;;;;5363663;26;20000;-80
2024/04/22 06:20:36;;;;;;;34.10;30.80;;;1.90;99.90;;;;;;5419371;26;20084;-80
2024/04/22 06:23:03;;;;;;;33.90;30.52;;;1.90;99.90;;;;;;5392274;26;20010;-79
2024/04/22 06:25:31;;;;;;;34.15;30.65;;;1.90;99.90;;;;;;5391159;26;19998;-80
2024/04/22 06:27:58;;;;;;;35.03;31.27;;;2.10;99.90;;;;;;5379485;26;20004;-81
2024/04/22 06:30:25;;;;;;;36.13;32.83;;;2.10;99.90;;;;;;5387424;26;21090;-80
2024/04/22 06:32:52;;;;;;;37.88;34.13;;;2.30;99.90;;;;;;5387328;26;20003;-81
2024/04/22 06:35:19;;;;;;;39.97;36.28;;;2.50;99.90;;;;;;5388334;26;20011;-80
2024/04/22 06:37:48;;;;;;;38.42;35.10;;;2.60;99.90;;;;;;5395316;26;20003;-80
2024/04/22 06:40:15;;;;;;;39.38;35.60;;;2.80;99.90;;;;;;5379907;26;20016;-82
2024/04/22 06:42:42;;;;;;;39.03;35.53;;;2.80;99.90;;;;;;5384992;26;20003;-81
2024/04/22 06:45:13;;;;;;;38.53;35.40;;;2.90;99.90;;;;;;5374894;26;20003;-80
2024/04/22 06:47:40;;;;;;;65.10;50.72;;;2.70;99.90;;;;;;5454714;26;20077;-78
2024/04/22 06:50:08;;;;;;;44.65;40.45;;;2.80;99.90;;;;;;5391537;26;20909;-81
2024/04/22 06:52:37;;;;;;;79.57;69.50;;;2.90;99.90;;;;;;5358195;26;20059;-81
2024/04/22 06:55:08;;;;;;;40.85;37.45;;;2.90;99.90;;;;;;5387214;26;20015;-79
2024/04/22 06:57:35;;;;;;;39.33;36.08;;;2.80;99.90;;;;;;5357484;26;20017;-81
2024/04/22 07:00:05;;;;;;;38.58;35.30;;;2.90;99.90;;;;;;5394059;26;20078;-81
2024/04/22 07:02:33;;;;;;;36.42;33.40;;;2.70;99.90;;;;;;5363484;26;20001;-80
2024/04/22 07:05:02;;;;;;;36.90;33.72;;;2.80;99.90;;;;;;5367230;26;20918;-81
2024/04/22 07:07:31;;;;;;;42.78;39.15;;;2.90;99.90;;;;;;5358058;26;20011;-80
2024/04/22 07:09:58;;;;;;;41.08;37.72;;;3.30;99.90;;;;;;5392909;26;19999;-79
2024/04/22 07:12:26;;;;;;;41.63;38.22;;;3.60;99.90;;;;;;5377377;26;20040;-79
2024/04/22 07:14:53;;;;;;;43.97;40.38;;;3.40;99.90;;;;;;5349763;26;20679;-80
2024/04/22 07:17:20;;;;;;;40.65;37.45;;;3.60;99.90;;;;;;5380014;26;20011;-80
2024/04/22 07:19:50;;;;;;;40.90;37.80;;;3.50;99.90;;;;;;5389772;26;20011;-80
2024/04/22 07:22:17;;;;;;;53.50;40.55;;;3.60;99.90;;;;;;5392331;26;20046;-80
2024/04/22 07:24:47;;;;;;;41.10;37.90;;;3.90;99.90;;;;;;5396240;26;20078;-80
2024/04/22 07:27:30;;;;;;;42.97;39.83;;;3.80;99.90;;;;;;5362965;26;20988;-79
2024/04/22 07:29:59;;;;;;;44.15;41.03;;;4.10;99.90;;;;;;5392033;26;20014;-79
2024/04/22 07:32:28;;;;;;;65.40;60.42;;;4.40;99.90;;;;;;5384423;26;20016;-79
2024/04/22 07:34:56;;;;;;;44.47;40.95;;;4.00;99.90;;;;;;5389949;26;20003;-80
2024/04/22 07:37:29;;;;;;;42.78;39.47;;;4.20;99.90;;;;;;5362293;26;19999;-79
2024/04/22 07:40:15;;;;;;;42.60;39.63;;;4.80;99.90;;;;;;5389413;26;20554;-80
2024/04/22 07:42:44;;;;;;;45.20;42.20;;;5.30;99.90;;;;;;5411357;26;20023;-81
2024/04/22 07:45:12;;;;;;;49.95;45.10;;;5.30;99.90;;;;;;5353710;26;20004;-82
2024/04/22 07:47:40;;;;;;;49.47;46.25;;;5.00;99.90;;;;;;5391209;26;20018;-81
2024/04/22 07:50:08;;;;;;;44.53;41.70;;;5.00;99.90;;;;;;5395379;26;20010;-81
2024/04/22 07:52:40;;;;;;;43.72;40.70;;;5.10;99.90;;;;;;5398184;26;20003;-81
2024/04/22 07:55:10;;;;;;;44.20;41.38;;;5.20;99.90;;;;;;5358634;26;20004;-81
2024/04/22 07:57:42;;;;;;;43.55;40.70;;;5.10;99.90;;;;;;5394388;26;20804;-79
2024/04/22 08:00:11;;;;;;;42.67;39.95;;;4.80;99.90;;;;;;5419189;26;20381;-81
2024/04/22 08:02:40;;;;;;;39.33;36.63;;;4.60;99.90;;;;;;5387963;26;20015;-83
2024/04/22 08:05:08;;;;;;;39.13;36.00;;;4.40;99.90;;;;;;5370704;26;20018;-80
2024/04/22 08:07:46;;;;;;;39.15;36.42;;;4.60;99.90;;;;;;5367325;26;20071;-83
2024/04/22 08:10:16;;;;;;;38.53;35.75;;;4.50;99.90;;;;;;5389399;26;19999;-80
2024/04/22 08:12:43;;;;;;;38.78;36.38;;;4.20;99.90;;;;;;5394600;26;20084;-79
2024/04/22 08:15:13;;;;;;;37.20;34.50;;;4.20;99.90;;;;;;5385768;26;20017;-80
2024/04/22 08:17:41;;;;;;;38.28;35.78;;;4.00;99.90;;;;;;5422679;26;21451;-81
2024/04/22 08:20:09;;;;;;;36.83;34.22;;;4.00;99.90;;;;;;5394262;26;20744;-81
2024/04/22 08:22:36;;;;;;;34.65;32.05;;;4.20;99.90;;;;;;5395141;26;20015;-83
2024/04/22 08:25:04;;;;;;;113.45;87.05;;;4.40;99.90;;;;;;5388930;26;20012;-82
2024/04/22 08:27:31;;;;;;;44.47;41.22;;;4.60;99.90;;;;;;5408419;26;20007;-81
2024/04/22 08:29:58;;;;;;;104.32;75.40;;;4.80;99.90;;;;;;5386439;26;20000;-82
2024/04/22 08:32:25;;;;;;;110.75;81.30;;;5.00;99.90;;;;;;5354278;26;20018;-80
2024/04/22 08:34:54;;;;;;;43.55;40.83;;;4.90;99.90;;;;;;5385716;26;20015;-80
2024/04/22 08:37:21;;;;;;;147.77;109.85;;;5.00;99.90;;;;;;5382360;26;19999;-83
2024/04/22 08:39:49;;;;;;;49.53;45.50;;;5.10;99.90;;;;;;5330406;26;20050;-80
2024/04/22 08:42:18;;;;;;;47.75;44.40;;;5.40;99.90;;;;;;5387183;26;19999;-81
2024/04/22 08:44:46;;;;;;;48.28;45.22;;;5.80;99.90;;;;;;5389875;26;20536;-81
2024/04/22 08:47:13;;;;;;;47.72;44.67;;;5.90;99.90;;;;;;5398745;26;20007;-82
2024/04/22 08:49:41;;;;;;;49.08;46.08;;;6.20;99.90;;;;;;5394148;26;20004;-81
2024/04/22 08:52:09;;;;;;;51.05;47.92;;;6.40;99.90;;;;;;5331511;26;20004;-83
2024/04/22 08:54:36;;;;;;;52.95;49.92;;;6.30;99.90;;;;;;5364165;26;20643;-81
2024/04/22 08:57:04;;;;;;;52.30;49.20;;;6.20;99.90;;;;;;5339729;26;20011;-84
2024/04/22 08:59:33;;;;;;;56.10;52.70;;;6.20;99.90;;;;;;5341591;26;20024;-83
2024/04/22 09:02:07;;;;;;;53.33;49.95;;;5.60;99.90;;;;;;5387596;26;20000;-80
2024/04/22 09:04:36;;;;;;;50.60;47.42;;;6.10;99.90;;;;;;5357383;26;20023;-83
2024/04/22 09:07:06;;;;;;;55.88;52.70;;;6.60;99.90;;;;;;5364380;26;20007;-82
2024/04/22 09:09:33;;;;;;;57.42;53.83;;;6.10;99.90;;;;;;5362156;26;20460;-81
2024/04/22 09:12:03;;;;;;;47.90;45.00;;;5.90;99.90;;;;;;5271270;27;20498;-82
2024/04/22 09:14:37;;;;;;;54.22;50.97;;;6.10;99.90;;;;;;5261764;26;20088;-80
2024/04/22 09:17:04;;;;;;;55.90;52.63;;;6.50;99.90;;;;;;5288288;26;20659;-82
2024/04/22 09:19:32;;;;;;;58.25;54.92;;;6.60;99.90;;;;;;5291710;26;20042;-83
2024/04/22 09:22:02;;;;;;;58.28;55.08;;;6.00;99.90;;;;;;5247876;26;19997;-82
2024/04/22 09:24:30;;;;;;;54.78;51.25;;;5.90;99.90;;;;;;5284133;26;20005;-82
2024/04/22 09:26:57;;;;;;;52.35;49.17;;;6.30;99.90;;;;;;5292047;26;20011;-84
2024/04/22 09:29:24;;;;;;;57.55;54.25;;;6.90;99.90;;;;;;5239355;26;20666;-82
2024/04/22 09:31:56;;;;;;;57.92;54.63;;;7.30;99.90;;;;;;5389600;26;20018;-79
2024/04/22 09:34:27;;;;;;;57.72;54.42;;;7.40;99.90;;;;;;5388880;26;20678;-81
2024/04/22 09:36:56;;;;;;;55.58;52.40;;;6.80;99.90;;;;;;5400652;26;20257;-83
2024/04/22 09:39:24;;;;;;;53.70;50.45;;;6.10;99.90;;;;;;5392258;26;19995;-81
2024/04/22 09:41:52;;;;;;;52.65;49.45;;;5.90;99.90;;;;;;5367271;26;20073;-81
2024/04/22 09:44:20;;;;;;;51.72;48.72;;;6.30;99.90;;;;;;5372616;26;20558;-81
2024/04/22 09:46:50;;;;;;;49.63;46.63;;;6.40;99.90;;;;;;5363060;26;20004;-80
2024/04/22 09:49:19;;;;;;;47.88;45.00;;;6.30;99.90;;;;;;5362638;26;20032;-82
2024/04/22 09:51:49;;;;;;;48.47;45.33;;;6.10;99.90;;;;;;5395028;26;19999;-81
2024/04/22 09:54:16;;;;;;;46.85;43.95;;;6.00;99.90;;;;;;5355696;26;20008;-80
2024/04/22 09:56:46;;;;;;;46.25;43.38;;;6.00;99.90;;;;;;5406984;26;20018;-82
2024/04/22 09:59:13;;;;;;;48.53;45.63;;;6.40;99.90;;;;;;5391560;26;20007;-84
2024/04/22 10:01:41;;;;;;;51.47;48.40;;;6.40;99.90;;;;;;5373185;26;20007;-82
2024/04/22 10:04:12;;;;;;;55.97;52.47;;;6.10;99.90;;;;;;5398019;26;20068;-82
2024/04/22 10:06:41;;;;;;;53.00;49.58;;;6.30;99.90;;;;;;5383983;26;20124;-81
2024/04/22 10:09:17;;;;;;;49.00;46.13;;;6.50;99.90;;;;;;5374293;26;20012;-80
2024/04/22 10:11:45;;;;;;;51.25;47.83;;;6.90;99.90;;;;;;5391197;26;20012;-82
2024/04/22 10:14:16;;;;;;;53.55;50.33;;;6.50;99.90;;;;;;5363510;26;20015;-79
2024/04/22 10:17:11;;;;;;;50.13;47.30;;;6.40;99.90;;;;;;5430369;26;20017;-83
2024/04/22 10:19:39;;;;;;;48.58;45.88;;;6.50;99.90;;;;;;5394716;26;19999;-81
2024/04/22 10:22:07;;;;;;;49.88;46.90;;;6.70;99.90;;;;;;5426086;26;20019;-81
2024/04/22 10:24:52;;;;;;;57.03;53.72;;;6.80;99.90;;;;;;5368461;26;20006;-81
2024/04/22 10:27:19;;;;;;;56.85;53.70;;;6.50;99.90;;;;;;5362269;26;20050;-79
2024/04/22 10:29:49;;;;;;;55.67;52.45;;;6.70;99.90;;;;;;5365129;26;20003;-83
2024/04/22 10:32:17;;;;;;;57.75;54.28;;;7.20;99.90;;;;;;5380549;26;20008;-79
2024/04/22 10:34:45;;;;;;;58.08;54.85;;;7.40;99.90;;;;;;5416359;26;20271;-82
2024/04/22 10:37:12;;;;;;;58.55;55.15;;;7.40;99.90;;;;;;5394074;26;19996;-82
2024/04/22 10:39:42;;;;;;;59.13;55.70;;;7.20;99.90;;;;;;5396496;26;20004;-80
2024/04/22 10:42:10;;;;;;;58.42;55.03;;;7.60;99.90;;;;;;5395255;26;20004;-79
2024/04/22 10:44:38;;;;;;;52.35;49.15;;;7.70;99.90;;;;;;5395522;26;20019;-80
2024/04/22 10:47:07;;;;;;;58.83;55.53;;;7.70;99.90;;;;;;5396356;26;20019;-81
2024/04/22 10:49:36;;;;;;;59.85;56.55;;;7.70;99.90;;;;;;5262065;26;20012;-81
2024/04/22 10:52:04;;;;;;;59.38;56.00;;;7.80;99.90;;;;;;5294779;26;20622;-81
2024/04/22 10:54:31;;;;;;;61.83;58.33;;;7.90;99.90;;;;;;5234126;26;20041;-80
2024/04/22 10:56:59;;;;;;;60.33;56.92;;;8.20;99.90;;;;;;5297081;26;20050;-81
2024/04/22 10:59:28;;;;;;;61.88;58.45;;;8.50;99.90;;;;;;5266207;26;20002;-82
2024/04/22 11:01:56;;;;;;;57.70;54.30;;;8.40;99.90;;;;;;5240598;27;20084;-80
2024/04/22 11:04:24;;;;;;;64.10;60.38;;;8.00;99.90;;;;;;5257723;27;20005;-81
2024/04/22 11:06:52;;;;;;;62.97;59.17;;;8.40;99.90;;;;;;5246187;26;20002;-80
2024/04/22 11:09:26;;;;;;;64.53;60.92;;;8.70;99.90;;;;;;5363924;26;20459;-81
2024/04/22 11:11:53;;;;;;;60.83;57.33;;;8.60;99.90;;;;;;5378093;26;20011;-80
2024/04/22 11:14:21;;;;;;;58.33;54.80;;;8.00;99.90;;;;;;5363245;26;20011;-80
2024/04/22 11:16:55;;;;;;;50.28;47.47;;;8.00;99.90;;;;;;5325686;26;20070;-81
2024/04/22 11:19:22;;;;;;;50.78;47.67;;;7.70;99.90;;;;;;5321092;26;20005;-80
2024/04/22 11:21:50;;;;;;;47.78;44.97;;;7.40;99.90;;;;;;5349427;26;20006;-79
2024/04/22 11:24:17;;;;;;;55.42;52.13;;;7.40;99.90;;;;;;5369109;26;20104;-80
2024/04/22 11:26:44;;;;;;;54.92;51.50;;;7.30;99.90;;;;;;5356403;26;20034;-80
2024/04/22 11:29:14;;;;;;;52.60;49.40;;;7.50;99.90;;;;;;5353895;26;20390;-80
2024/04/22 11:31:41;;;;;;;50.95;47.70;;;7.50;99.90;;;;;;5350530;26;20017;-81
2024/04/22 11:34:10;;;;;;;53.92;50.40;;;7.10;99.90;;;;;;5352661;26;20016;-81
2024/04/22 11:36:37;;;;;;;55.22;51.75;;;7.10;99.90;;;;;;5378318;26;20844;-80
2024/04/22 11:39:14;;;;;;;61.20;57.60;;;7.00;99.90;;;;;;5357962;26;20043;-78
2024/04/22 11:41:45;;;;;;;59.13;55.70;;;7.30;99.90;;;;;;5355308;26;20008;-79
2024/04/22 11:44:12;;;;;;;60.30;56.90;;;7.70;99.90;;;;;;5352607;26;20005;-77
2024/04/22 11:46:39;;;;;;;59.05;55.45;;;8.10;99.90;;;;;;5371633;26;20462;-79
2024/04/22 11:49:07;;;;;;;59.75;56.28;;;8.20;99.90;;;;;;5387175;26;20023;-76
2024/04/22 11:51:34;;;;;;;59.83;56.33;;;8.40;99.90;;;;;;5382354;26;20107;-77
2024/04/22 11:54:04;;;;;;;60.17;56.47;;;8.50;99.90;;;;;;5390482;26;20026;-79
2024/04/22 11:56:35;;;;;;;59.20;55.78;;;8.50;99.90;;;;;;5363445;26;20383;-79
2024/04/22 11:59:06;;;;;;;56.42;52.97;;;8.60;99.90;;;;;;5379951;26;20134;-79
2024/04/22 12:01:34;;;;;;;56.67;53.30;;;9.00;99.90;;;;;;5320281;26;20000;-78
2024/04/22 12:04:01;;;;;;;58.10;54.75;;;8.40;99.90;;;;;;5323624;26;20011;-79
2024/04/22 12:06:29;;;;;;;54.45;51.10;;;8.40;99.90;;;;;;5389078;26;20018;-79
2024/04/22 12:08:58;;;;;;;56.10;52.72;;;8.40;99.90;;;;;;5388143;26;20018;-78
2024/04/22 12:11:30;;;;;;;56.17;52.92;;;7.80;99.90;;;;;;5353806;26;20023;-76
2024/04/22 12:13:58;;;;;;;61.33;57.78;;;7.60;99.90;;;;;;5385461;26;20000;-78
2024/04/22 12:16:26;;;;;;;57.63;54.13;;;7.70;99.90;;;;;;5355943;26;20077;-76
2024/04/22 12:18:53;;;;;;;57.20;53.72;;;8.00;99.90;;;;;;5379949;26;20022;-77
2024/04/22 12:21:21;;;;;;;56.30;52.80;;;8.00;99.90;;;;;;5379653;26;20622;-76
2024/04/22 12:23:48;;;;;;;56.58;53.30;;;8.00;99.90;;;;;;5353696;26;20135;-76
2024/04/22 12:26:16;;;;;;;61.08;57.47;;;7.80;99.90;;;;;;5375689;26;20459;-77
2024/04/22 12:28:43;;;;;;;57.75;54.40;;;7.90;99.90;;;;;;5343017;26;20200;-75
2024/04/22 12:31:10;;;;;;;56.75;53.05;;;8.10;99.90;;;;;;5390107;26;20526;-75
2024/04/22 12:33:37;;;;;;;57.42;54.03;;;8.10;99.90;;;;;;5381589;26;20115;-75
2024/04/22 12:36:17;;;;;;;57.03;53.55;;;7.80;99.90;;;;;;5382739;26;20023;-76
2024/04/22 12:38:44;;;;;;;56.80;53.35;;;7.90;99.90;;;;;;5381984;26;20530;-76
2024/04/22 12:41:11;;;;;;;56.33;52.95;;;8.30;99.90;;;;;;5378287;26;20000;-74
2024/04/22 12:43:38;;;;;;;55.38;52.17;;;8.30;99.90;;;;;;5346763;26;19996;-75
2024/04/22 12:46:06;;;;;;;57.78;54.38;;;7.90;99.90;;;;;;5378997;26;20072;-75
2024/04/22 12:51:19;;;;;;;57.55;54.05;;;7.90;99.90;;;;;;5383004;26;20014;-74
2024/04/22 12:53:46;;;;;;;60.05;56.35;;;7.70;99.90;;;;;;5376168;26;20360;-74